Time;durP1;ratioP1;P1;durP2;ratioP2;P2;SDS_P1;SDS_P2;PMS_P1;PMS_P2;Temp;Humidity;BMP_temperature;BMP_pressure;BME280_temperature;BME280_humidity;BME280_pressure;Samples;Min_cycle;Max_cycle;Signal;HPM_P1;HPM_P2
2021/01/10 00:00:27;;;;;;;0.40;0.40;;;-2.70;99.90;;;;;;5044877;28;20166;-71
2021/01/10 00:02:54;;;;;;;0.40;0.40;;;-2.70;99.90;;;;;;5048823;28;20549;-71
2021/01/10 00:05:35;;;;;;;0.40;0.40;;;-2.80;99.90;;;;;;5053253;28;20581;-69
2021/01/10 00:08:01;;;;;;;0.30;0.30;;;-2.80;99.90;;;;;;5052929;28;20561;-72
2021/01/10 00:10:27;;;;;;;0.40;0.40;;;-2.90;99.90;;;;;;5052885;28;20204;-70
2021/01/10 00:13:02;;;;;;;0.40;0.40;;;-2.90;99.90;;;;;;5057743;28;20284;-72
2021/01/10 00:15:28;;;;;;;2.20;2.10;;;-2.90;99.90;;;;;;5058880;28;20208;-71
2021/01/10 00:17:54;;;;;;;0.40;0.40;;;-3.00;99.90;;;;;;5059679;28;20661;-71
2021/01/10 00:20:20;;;;;;;0.30;0.30;;;-3.00;99.90;;;;;;5059191;28;20184;-69
2021/01/10 00:22:56;;;;;;;0.30;0.30;;;-3.00;99.90;;;;;;5059346;28;20283;-70
2021/01/10 00:25:23;;;;;;;0.40;0.40;;;-3.00;99.90;;;;;;5039711;28;20180;-71
2021/01/10 00:27:49;;;;;;;0.30;0.30;;;-3.10;99.90;;;;;;5051267;28;20510;-69
2021/01/10 00:30:18;;;;;;;0.40;0.40;;;-3.10;99.90;;;;;;5059416;28;20165;-70
2021/01/10 00:32:55;;;;;;;0.40;0.40;;;-3.00;99.90;;;;;;5059777;28;20200;-69
2021/01/10 00:35:23;;;;;;;0.40;0.40;;;-3.10;99.90;;;;;;5060966;28;20274;-70
2021/01/10 00:37:54;;;;;;;0.30;0.30;;;-3.00;99.90;;;;;;5058820;28;20165;-70
2021/01/10 00:40:21;;;;;;;0.40;0.40;;;-3.00;99.90;;;;;;5058945;28;20252;-73
2021/01/10 00:42:47;;;;;;;0.40;0.40;;;-3.00;99.90;;;;;;5059580;28;20527;-70
2021/01/10 00:45:14;;;;;;;0.40;0.40;;;-3.00;99.90;;;;;;5059388;28;20179;-70
2021/01/10 00:47:40;;;;;;;0.30;0.30;;;-3.00;99.90;;;;;;5045287;28;20421;-72
2021/01/10 00:50:07;;;;;;;0.40;0.40;;;-3.00;99.90;;;;;;5044130;28;20181;-69
2021/01/10 00:52:34;;;;;;;0.40;0.40;;;-3.10;99.90;;;;;;5059198;28;20189;-71
2021/01/10 00:55:00;;;;;;;0.40;0.40;;;-3.00;99.90;;;;;;5059112;28;20183;-70
2021/01/10 00:57:26;;;;;;;2.33;1.90;;;-3.00;99.90;;;;;;5058808;28;20170;-70
2021/01/10 00:59:52;;;;;;;0.30;0.30;;;-3.00;99.90;;;;;;5040870;28;20397;-70
2021/01/10 01:02:18;;;;;;;0.40;0.40;;;-3.00;99.90;;;;;;5059334;28;20243;-69
2021/01/10 01:04:45;;;;;;;0.40;0.40;;;-3.00;99.90;;;;;;5057967;28;20184;-69
2021/01/10 01:07:12;;;;;;;0.35;0.35;;;-3.00;99.90;;;;;;5047962;28;20253;-70
2021/01/10 01:09:38;;;;;;;0.40;0.40;;;-3.00;99.90;;;;;;5038302;28;20182;-71
2021/01/10 01:12:05;;;;;;;0.30;0.30;;;-3.00;99.90;;;;;;5057371;28;20626;-68
2021/01/10 01:14:31;;;;;;;0.40;0.40;;;-3.10;99.90;;;;;;5060015;28;20247;-71
2021/01/10 01:16:56;;;;;;;0.57;0.57;;;-3.10;99.90;;;;;;5059006;28;20203;-71
2021/01/10 01:19:22;;;;;;;0.30;0.30;;;-3.10;99.90;;;;;;5059153;28;20518;-70
2021/01/10 01:21:52;;;;;;;0.93;0.93;;;-3.00;99.90;;;;;;5049755;28;20190;-69
2021/01/10 01:24:19;;;;;;;1.40;1.30;;;-3.10;99.90;;;;;;5036887;28;20189;-72
2021/01/10 01:26:46;;;;;;;0.35;0.35;;;-3.10;99.90;;;;;;5055972;28;20204;-71
2021/01/10 01:29:12;;;;;;;0.60;0.60;;;-3.00;99.90;;;;;;5056018;28;20185;-69
2021/01/10 01:31:37;;;;;;;0.30;0.30;;;-3.00;99.90;;;;;;5056491;28;20201;-71
2021/01/10 01:34:03;;;;;;;0.40;0.40;;;-3.10;99.90;;;;;;5056257;28;20508;-70
2021/01/10 01:36:29;;;;;;;0.40;0.40;;;-3.20;99.90;;;;;;5046184;28;20265;-69
2021/01/10 01:38:59;;;;;;;0.40;0.40;;;-3.20;99.90;;;;;;5036136;28;20190;-72
2021/01/10 01:41:25;;;;;;;0.38;0.38;;;-3.20;99.90;;;;;;5054966;28;20197;-71
2021/01/10 01:43:51;;;;;;;0.40;0.40;;;-3.20;99.90;;;;;;5055724;28;20166;-68
2021/01/10 01:46:32;;;;;;;0.40;0.40;;;-3.30;99.90;;;;;;5055261;28;20201;-70
2021/01/10 01:49:02;;;;;;;0.30;0.30;;;-3.30;99.90;;;;;;5055951;28;20574;-74
2021/01/10 01:51:28;;;;;;;0.50;0.50;;;-3.30;99.90;;;;;;5054137;28;20205;-71
2021/01/10 01:53:54;;;;;;;0.40;0.40;;;-3.30;99.90;;;;;;5055402;28;20530;-70
2021/01/10 01:56:20;;;;;;;0.30;0.30;;;-3.40;99.90;;;;;;5055085;28;20209;-71
2021/01/10 01:59:15;;;;;;;0.37;0.37;;;-3.30;99.90;;;;;;5055019;28;20169;-71
2021/01/10 02:01:40;;;;;;;0.40;0.40;;;-3.30;99.90;;;;;;5029308;28;20464;-69
2021/01/10 02:04:13;;;;;;;0.40;0.40;;;-3.40;99.90;;;;;;5035656;28;20165;-70
2021/01/10 02:06:45;;;;;;;0.30;0.30;;;-3.40;99.90;;;;;;5055153;28;20224;-67
2021/01/10 02:09:13;;;;;;;0.40;0.40;;;-3.30;99.90;;;;;;5055122;28;20169;-71
2021/01/10 02:11:41;;;;;;;0.40;0.40;;;-3.30;99.90;;;;;;5057036;28;20185;-71
2021/01/10 02:14:10;;;;;;;0.40;0.40;;;-3.30;99.90;;;;;;5050588;28;20204;-69
2021/01/10 02:16:37;;;;;;;0.40;0.40;;;-3.40;99.90;;;;;;5035207;28;20241;-71
2021/01/10 02:19:09;;;;;;;3.70;2.25;;;-3.50;99.90;;;;;;5044795;28;20183;-70
2021/01/10 02:21:37;;;;;;;1.85;1.75;;;-3.50;99.90;;;;;;5056039;28;20220;-69
2021/01/10 02:24:05;;;;;;;0.30;0.30;;;-3.50;99.90;;;;;;5057770;28;20200;-72
2021/01/10 02:26:31;;;;;;;0.40;0.40;;;-3.50;99.90;;;;;;5053842;28;20687;-71
2021/01/10 02:28:58;;;;;;;0.30;0.30;;;-3.50;99.90;;;;;;5054656;28;20181;-70
2021/01/10 02:31:25;;;;;;;0.50;0.50;;;-3.60;99.90;;;;;;5054263;28;20200;-70
2021/01/10 02:33:54;;;;;;;0.38;0.38;;;-3.60;99.90;;;;;;5054602;28;20174;-72
2021/01/10 02:36:32;;;;;;;0.30;0.30;;;-3.60;99.90;;;;;;5054224;28;20227;-71
2021/01/10 02:39:04;;;;;;;0.30;0.30;;;-3.60;99.90;;;;;;5043191;28;20176;-71
2021/01/10 02:41:42;;;;;;;0.38;0.38;;;-3.70;99.90;;;;;;5054213;28;20181;-71
2021/01/10 02:44:12;;;;;;;0.40;0.40;;;-3.70;99.90;;;;;;5053087;28;20604;-71
2021/01/10 02:46:40;;;;;;;0.40;0.40;;;-3.60;99.90;;;;;;5054650;28;20166;-70
2021/01/10 02:49:06;;;;;;;0.30;0.30;;;-3.70;99.90;;;;;;5052562;28;20520;-71
2021/01/10 02:51:32;;;;;;;0.60;0.60;;;-3.70;99.90;;;;;;5053881;28;20197;-69
2021/01/10 02:53:57;;;;;;;0.40;0.40;;;-3.60;99.90;;;;;;5054400;28;20424;-68
2021/01/10 02:56:23;;;;;;;0.30;0.30;;;-3.70;99.90;;;;;;5054267;28;20196;-68
2021/01/10 02:58:54;;;;;;;0.40;0.40;;;-3.70;99.90;;;;;;5051587;28;20177;-71
2021/01/10 03:01:22;;;;;;;0.50;0.50;;;-3.70;99.90;;;;;;5033742;28;20436;-72
2021/01/10 03:03:48;;;;;;;0.73;0.73;;;-3.80;99.90;;;;;;5034479;28;20213;-68
2021/01/10 03:06:14;;;;;;;0.60;0.60;;;-3.80;99.90;;;;;;5034047;28;20217;-71
2021/01/10 03:08:40;;;;;;;0.30;0.30;;;-3.80;99.90;;;;;;5034272;28;20412;-71
2021/01/10 03:11:06;;;;;;;0.40;0.40;;;-3.80;99.90;;;;;;5052557;28;20533;-71
2021/01/10 03:13:33;;;;;;;0.40;0.40;;;-3.80;99.90;;;;;;5057774;28;20416;-71
2021/01/10 03:16:00;;;;;;;0.40;0.40;;;-3.80;99.90;;;;;;5056257;28;20520;-68
2021/01/10 03:18:26;;;;;;;0.30;0.30;;;-3.80;99.90;;;;;;5054048;28;20173;-68
2021/01/10 03:20:51;;;;;;;0.30;0.30;;;-3.80;99.90;;;;;;5054028;28;20165;-71
2021/01/10 03:23:18;;;;;;;0.40;0.40;;;-3.90;99.90;;;;;;5053828;28;20431;-69
2021/01/10 03:25:44;;;;;;;0.40;0.40;;;-3.90;99.90;;;;;;5053809;28;20932;-68
2021/01/10 03:28:10;;;;;;;0.40;0.40;;;-3.90;99.90;;;;;;5052706;28;20208;-71
2021/01/10 03:30:36;;;;;;;4.80;4.50;;;-3.90;99.90;;;;;;5053329;28;20170;-72
2021/01/10 03:33:03;;;;;;;0.40;0.40;;;-3.80;99.90;;;;;;5053809;28;20224;-68
2021/01/10 03:35:30;;;;;;;0.35;0.35;;;-3.80;99.90;;;;;;5053430;28;20523;-69
2021/01/10 03:37:56;;;;;;;0.47;0.47;;;-3.80;99.90;;;;;;5053737;28;20208;-70
2021/01/10 03:40:22;;;;;;;0.40;0.40;;;-3.70;99.90;;;;;;5051531;28;20649;-70
2021/01/10 03:42:47;;;;;;;0.40;0.40;;;-3.70;99.90;;;;;;5053688;28;20416;-69
2021/01/10 03:45:15;;;;;;;2.53;2.37;;;-3.70;99.90;;;;;;5053417;28;20169;-71
2021/01/10 03:47:41;;;;;;;0.40;0.40;;;-3.60;99.90;;;;;;5054019;28;20169;-70
2021/01/10 03:50:08;;;;;;;0.30;0.30;;;-3.60;99.90;;;;;;5067524;28;20177;-71
2021/01/10 03:52:34;;;;;;;0.30;0.30;;;-3.50;99.90;;;;;;5054621;28;20189;-70
2021/01/10 03:55:01;;;;;;;0.30;0.30;;;-3.60;99.90;;;;;;5053106;28;20166;-70
2021/01/10 03:57:26;;;;;;;0.73;0.73;;;-3.50;99.90;;;;;;5051344;28;20711;-73
2021/01/10 03:59:52;;;;;;;0.40;0.40;;;-3.50;99.90;;;;;;5038998;28;20265;-71
2021/01/10 04:02:18;;;;;;;0.30;0.30;;;-3.40;99.90;;;;;;5034120;28;20248;-69
2021/01/10 04:04:43;;;;;;;0.40;0.40;;;-3.40;99.90;;;;;;5048854;28;20279;-68
2021/01/10 04:07:09;;;;;;;0.40;0.40;;;-3.30;99.90;;;;;;5056328;28;20181;-69
2021/01/10 04:09:35;;;;;;;0.30;0.30;;;-3.30;99.90;;;;;;5055977;28;20185;-71
2021/01/10 04:12:01;;;;;;;0.30;0.30;;;-3.20;99.90;;;;;;5055075;28;20232;-69
2021/01/10 04:14:26;;;;;;;0.40;0.40;;;-3.20;99.90;;;;;;5053672;28;20433;-72
2021/01/10 04:16:53;;;;;;;0.40;0.40;;;-3.20;99.90;;;;;;5054855;28;20546;-69
2021/01/10 04:19:19;;;;;;;0.40;0.40;;;-3.00;99.90;;;;;;5057333;28;20185;-72
2021/01/10 04:21:45;;;;;;;0.40;0.40;;;-2.90;99.90;;;;;;5057926;28;20204;-72
2021/01/10 04:24:11;;;;;;;0.40;0.40;;;-2.90;99.90;;;;;;5057583;28;20173;-70
2021/01/10 04:26:39;;;;;;;0.40;0.40;;;-2.90;99.90;;;;;;5056798;28;20423;-68
2021/01/10 04:29:05;;;;;;;0.40;0.40;;;-2.90;99.90;;;;;;5053439;28;20424;-70
2021/01/10 04:31:31;;;;;;;0.40;0.40;;;-2.80;99.90;;;;;;5052389;28;20680;-70
2021/01/10 04:33:56;;;;;;;3.13;2.93;;;-2.70;99.90;;;;;;5052928;28;20182;-69
2021/01/10 04:36:27;;;;;;;0.40;0.40;;;-2.70;99.90;;;;;;5035171;28;20507;-71
2021/01/10 04:38:52;;;;;;;0.40;0.40;;;-2.70;99.90;;;;;;5039222;28;20681;-70
2021/01/10 04:41:19;;;;;;;0.40;0.40;;;-2.70;99.90;;;;;;5052461;28;20194;-70
2021/01/10 04:43:45;;;;;;;0.93;0.93;;;-2.60;99.90;;;;;;5052565;28;20169;-69
2021/01/10 04:46:11;;;;;;;0.40;0.40;;;-2.60;99.90;;;;;;5051954;28;20177;-69
2021/01/10 04:48:37;;;;;;;0.30;0.30;;;-2.50;99.90;;;;;;5052838;28;20181;-69
2021/01/10 04:51:02;;;;;;;0.40;0.40;;;-2.40;99.90;;;;;;5051017;28;20411;-68
2021/01/10 04:53:34;;;;;;;0.40;0.40;;;-2.50;99.90;;;;;;5051197;28;20408;-69
2021/01/10 04:56:03;;;;;;;0.30;0.30;;;-2.50;99.90;;;;;;5053062;28;20583;-71
2021/01/10 04:58:29;;;;;;;0.40;0.40;;;-2.50;99.90;;;;;;5054379;28;20170;-69
2021/01/10 05:01:01;;;;;;;0.40;0.40;;;-2.40;99.90;;;;;;5055531;28;20184;-70
2021/01/10 05:03:30;;;;;;;0.88;0.88;;;-2.40;99.90;;;;;;5054786;28;20419;-70
2021/01/10 05:05:56;;;;;;;0.38;0.38;;;-2.30;99.90;;;;;;5056174;28;20189;-71
2021/01/10 05:08:22;;;;;;;0.40;0.40;;;-2.30;99.90;;;;;;5056522;28;20169;-71
2021/01/10 05:10:48;;;;;;;0.40;0.40;;;-2.20;99.90;;;;;;5055655;28;20184;-69
2021/01/10 05:13:13;;;;;;;0.40;0.40;;;-2.20;99.90;;;;;;5056250;28;20228;-69
2021/01/10 05:15:42;;;;;;;0.40;0.40;;;-2.10;99.90;;;;;;5053909;28;20193;-70
2021/01/10 05:18:08;;;;;;;0.40;0.40;;;-2.10;99.90;;;;;;5056099;28;20641;-70
2021/01/10 05:20:33;;;;;;;0.40;0.40;;;-2.10;99.90;;;;;;5051511;28;20232;-68
2021/01/10 05:23:00;;;;;;;0.30;0.30;;;-2.10;99.90;;;;;;5041775;28;20679;-72
2021/01/10 05:25:27;;;;;;;0.50;0.50;;;-2.00;99.90;;;;;;5056075;28;20264;-69
2021/01/10 05:27:55;;;;;;;0.30;0.30;;;-2.00;99.90;;;;;;5055772;28;20200;-67
2021/01/10 05:30:40;;;;;;;0.40;0.40;;;-1.90;99.90;;;;;;5055670;28;20539;-71
2021/01/10 05:33:08;;;;;;;0.40;0.40;;;-1.90;99.90;;;;;;5055373;28;20205;-70
2021/01/10 05:36:00;;;;;;;0.40;0.40;;;-1.90;99.90;;;;;;5052483;28;20201;-72
2021/01/10 05:38:33;;;;;;;0.90;0.82;;;-1.90;99.90;;;;;;5051922;28;20186;-72
2021/01/10 05:41:01;;;;;;;0.40;0.40;;;-1.80;99.90;;;;;;5053374;28;20184;-68
2021/01/10 05:43:27;;;;;;;0.30;0.30;;;-1.90;99.90;;;;;;5055492;28;20249;-71
2021/01/10 05:45:55;;;;;;;0.30;0.30;;;-1.90;99.90;;;;;;5055476;28;20189;-69
2021/01/10 05:48:21;;;;;;;0.30;0.30;;;-2.00;99.90;;;;;;5055598;28;20200;-70
2021/01/10 05:50:56;;;;;;;0.30;0.30;;;-1.90;99.90;;;;;;5045199;28;20182;-69
2021/01/10 05:53:23;;;;;;;0.45;0.45;;;-1.80;99.90;;;;;;5054689;28;20195;-70
2021/01/10 05:56:02;;;;;;;0.40;0.40;;;-1.80;99.90;;;;;;5056953;28;20193;-71
2021/01/10 05:58:32;;;;;;;0.30;0.30;;;-1.80;99.90;;;;;;5056562;28;20169;-71
2021/01/10 06:00:59;;;;;;;0.30;0.30;;;-1.80;99.90;;;;;;5054804;28;20211;-68
2021/01/10 06:03:30;;;;;;;0.40;0.40;;;-1.90;99.90;;;;;;5055447;28;20161;-70
2021/01/10 06:06:06;;;;;;;0.30;0.30;;;-1.90;99.90;;;;;;5054473;28;20231;-71
2021/01/10 06:08:37;;;;;;;0.40;0.40;;;-1.80;99.90;;;;;;5055487;28;20231;-70
2021/01/10 06:11:26;;;;;;;0.30;0.30;;;-1.90;99.90;;;;;;5053987;28;20219;-67
2021/01/10 06:13:55;;;;;;;0.32;0.32;;;-1.90;99.90;;;;;;5044321;28;20172;-73
2021/01/10 06:16:23;;;;;;;0.30;0.30;;;-2.00;99.90;;;;;;5053248;28;20220;-69
2021/01/10 06:18:58;;;;;;;0.30;0.30;;;-1.90;99.90;;;;;;5055138;28;20642;-70
2021/01/10 06:21:28;;;;;;;0.30;0.30;;;-1.90;99.90;;;;;;5054455;28;20192;-68
2021/01/10 06:24:19;;;;;;;0.30;0.30;;;-1.90;99.90;;;;;;5055501;28;20261;-68
2021/01/10 06:26:50;;;;;;;0.98;0.98;;;-2.00;99.90;;;;;;5054660;28;20503;-70
2021/01/10 06:29:19;;;;;;;0.30;0.30;;;-2.00;99.90;;;;;;5054232;28;20537;-70
2021/01/10 06:31:50;;;;;;;0.30;0.30;;;-1.90;99.90;;;;;;5054015;28;20557;-68
2021/01/10 06:34:19;;;;;;;0.32;0.32;;;-1.90;99.90;;;;;;5054949;28;20180;-70
2021/01/10 06:36:46;;;;;;;0.30;0.30;;;-1.80;99.90;;;;;;5054179;28;20209;-70
2021/01/10 06:39:18;;;;;;;0.65;0.65;;;-1.80;99.90;;;;;;5054605;28;20170;-71
2021/01/10 06:41:52;;;;;;;0.30;0.30;;;-1.70;99.90;;;;;;5053963;28;20531;-70
2021/01/10 06:44:20;;;;;;;0.30;0.30;;;-1.70;99.90;;;;;;5037091;28;20189;-68
2021/01/10 06:46:53;;;;;;;0.30;0.30;;;-1.60;99.90;;;;;;5045728;28;20169;-69
2021/01/10 06:49:19;;;;;;;0.30;0.30;;;-1.60;99.90;;;;;;5054570;28;20188;-68
2021/01/10 06:51:46;;;;;;;0.40;0.40;;;-1.70;99.90;;;;;;5053697;28;20260;-70
2021/01/10 06:54:12;;;;;;;0.57;0.57;;;-1.70;99.90;;;;;;5054391;28;20699;-72
2021/01/10 06:56:39;;;;;;;0.30;0.30;;;-1.60;99.90;;;;;;5052814;28;20231;-70
2021/01/10 06:59:09;;;;;;;0.30;0.30;;;-1.50;99.90;;;;;;5038694;28;20235;-69
2021/01/10 07:02:04;;;;;;;1.20;1.10;;;-1.50;99.90;;;;;;5053569;28;20197;-69
2021/01/10 07:04:32;;;;;;;0.30;0.30;;;-1.60;99.90;;;;;;5037150;28;20199;-71
2021/01/10 07:06:58;;;;;;;0.30;0.30;;;-1.60;99.90;;;;;;5053903;28;20185;-71
2021/01/10 07:09:23;;;;;;;0.40;0.40;;;-1.60;99.90;;;;;;5053619;28;20169;-70
2021/01/10 07:11:50;;;;;;;0.30;0.30;;;-1.50;99.90;;;;;;5053242;28;20677;-70
2021/01/10 07:14:22;;;;;;;0.50;0.50;;;-1.50;99.90;;;;;;5054192;28;20205;-70
2021/01/10 07:16:49;;;;;;;0.40;0.40;;;-1.50;99.90;;;;;;5053442;28;20212;-71
2021/01/10 07:19:15;;;;;;;0.30;0.30;;;-1.50;99.90;;;;;;5052527;28;20244;-70
2021/01/10 07:21:46;;;;;;;0.30;0.30;;;-1.60;99.90;;;;;;5053990;28;20703;-67
2021/01/10 07:24:21;;;;;;;0.30;0.30;;;-1.50;99.90;;;;;;5053197;28;20172;-70
2021/01/10 07:26:54;;;;;;;0.40;0.40;;;-1.60;99.90;;;;;;5052258;28;20173;-68
2021/01/10 07:29:41;;;;;;;0.40;0.40;;;-1.60;99.90;;;;;;5053981;28;20177;-70
2021/01/10 07:32:09;;;;;;;0.30;0.30;;;-1.60;99.90;;;;;;5056963;28;20196;-68
2021/01/10 07:34:57;;;;;;;0.40;0.40;;;-1.60;99.90;;;;;;5047253;28;20260;-70
2021/01/10 07:37:26;;;;;;;0.38;0.38;;;-1.50;99.90;;;;;;5033381;28;20201;-69
2021/01/10 07:39:55;;;;;;;0.40;0.40;;;-1.50;99.90;;;;;;5047390;28;20177;-69
2021/01/10 07:42:25;;;;;;;0.40;0.40;;;-1.60;99.90;;;;;;5053782;28;20181;-71
2021/01/10 07:44:51;;;;;;;0.40;0.40;;;-1.50;99.90;;;;;;5052122;28;20181;-71
2021/01/10 07:47:32;;;;;;;0.30;0.30;;;-1.40;99.90;;;;;;5053360;28;20275;-70
2021/01/10 07:49:59;;;;;;;2.45;2.35;;;-1.40;99.90;;;;;;5048630;28;20178;-73
2021/01/10 07:52:46;;;;;;;0.40;0.40;;;-1.40;99.90;;;;;;5045914;28;20201;-71
2021/01/10 07:55:20;;;;;;;0.40;0.40;;;-1.40;99.90;;;;;;5048029;28;20183;-71
2021/01/10 07:57:46;;;;;;;0.40;0.40;;;-1.40;99.90;;;;;;5052011;28;20180;-69
2021/01/10 08:00:16;;;;;;;0.30;0.30;;;-1.30;99.90;;;;;;5052107;28;20166;-68
2021/01/10 08:03:05;;;;;;;0.30;0.30;;;-1.20;99.90;;;;;;5053008;28;20252;-69
2021/01/10 08:05:41;;;;;;;0.40;0.40;;;-1.20;99.90;;;;;;5054887;28;20552;-70
2021/01/10 08:08:12;;;;;;;0.30;0.30;;;-1.20;99.90;;;;;;5039311;28;20193;-68
2021/01/10 08:10:48;;;;;;;0.30;0.30;;;-1.20;99.90;;;;;;5032677;28;20185;-70
2021/01/10 08:13:38;;;;;;;0.40;0.40;;;-1.20;99.90;;;;;;5049856;28;20177;-69
2021/01/10 08:16:05;;;;;;;0.30;0.30;;;-1.10;99.90;;;;;;5052516;28;20251;-68
2021/01/10 08:18:34;;;;;;;0.75;0.75;;;-1.00;99.90;;;;;;5051545;28;20174;-71
2021/01/10 08:21:01;;;;;;;0.50;0.50;;;-1.00;99.90;;;;;;5050946;28;20268;-71
2021/01/10 08:23:27;;;;;;;0.30;0.30;;;-0.90;99.90;;;;;;5051890;28;20641;-70
2021/01/10 08:26:12;;;;;;;0.43;0.43;;;-0.90;99.90;;;;;;5052965;28;20170;-70
2021/01/10 08:28:42;;;;;;;0.30;0.30;;;-0.80;99.90;;;;;;5051309;28;20590;-68
2021/01/10 08:31:10;;;;;;;0.30;0.30;;;-0.70;99.90;;;;;;5051603;28;20256;-71
2021/01/10 08:33:36;;;;;;;1.00;1.00;;;-0.70;99.90;;;;;;5054639;28;20576;-71
2021/01/10 08:36:11;;;;;;;1.33;1.33;;;-0.80;99.90;;;;;;5057024;28;20197;-72
2021/01/10 08:38:57;;;;;;;0.60;0.60;;;-0.70;99.90;;;;;;5056340;28;20528;-70
2021/01/10 08:41:27;;;;;;;0.30;0.30;;;-0.60;99.90;;;;;;5056408;28;20190;-70
2021/01/10 08:43:58;;;;;;;0.50;0.50;;;-0.60;99.90;;;;;;5056339;28;20771;-73
2021/01/10 08:46:26;;;;;;;1.95;1.27;;;-0.40;99.90;;;;;;5055763;28;20231;-69
2021/01/10 08:48:52;;;;;;;0.40;0.40;;;-0.40;99.90;;;;;;5056878;28;20173;-74
2021/01/10 08:51:32;;;;;;;0.30;0.30;;;-0.30;99.90;;;;;;5055801;28;20217;-75
2021/01/10 08:53:59;;;;;;;0.30;0.30;;;-0.20;99.90;;;;;;5055828;28;20906;-73
2021/01/10 08:56:25;;;;;;;0.40;0.40;;;-0.10;99.90;;;;;;5056196;28;20224;-74
2021/01/10 08:58:55;;;;;;;0.40;0.40;;;-0.10;99.90;;;;;;5055299;28;20175;-72
2021/01/10 09:01:23;;;;;;;0.30;0.30;;;0.00;99.90;;;;;;5055777;28;20192;-73
2021/01/10 09:04:02;;;;;;;0.95;0.95;;;0.20;99.90;;;;;;5056328;28;20181;-73
2021/01/10 09:06:38;;;;;;;3.25;3.08;;;0.80;99.90;;;;;;5055968;28;20185;-73
2021/01/10 09:09:09;;;;;;;0.30;0.30;;;1.40;99.90;;;;;;5046305;28;20546;-73
2021/01/10 09:11:37;;;;;;;0.88;0.88;;;1.80;99.90;;;;;;5043809;28;20557;-73
2021/01/10 09:14:06;;;;;;;1.70;1.70;;;2.00;99.90;;;;;;5056135;28;20181;-72
2021/01/10 09:16:33;;;;;;;2.25;1.55;;;2.40;99.90;;;;;;5055588;28;20200;-73
2021/01/10 09:19:01;;;;;;;0.30;0.30;;;2.70;99.90;;;;;;5055980;28;20180;-73
2021/01/10 09:21:27;;;;;;;0.30;0.30;;;3.10;99.90;;;;;;5054383;28;20263;-73
2021/01/10 09:23:58;;;;;;;0.30;0.30;;;3.70;99.90;;;;;;5055134;28;20175;-74
2021/01/10 09:26:28;;;;;;;0.40;0.40;;;4.50;99.90;;;;;;5056012;28;20166;-75
2021/01/10 09:28:54;;;;;;;0.45;0.45;;;5.20;99.90;;;;;;5055369;28;20546;-72
2021/01/10 09:31:20;;;;;;;0.40;0.40;;;5.60;99.90;;;;;;5055197;28;20609;-72
2021/01/10 09:33:53;;;;;;;0.30;0.30;;;6.20;99.90;;;;;;5055529;28;20184;-73
2021/01/10 09:36:19;;;;;;;0.73;0.73;;;6.70;99.90;;;;;;5055495;28;20197;-74
2021/01/10 09:38:56;;;;;;;1.43;0.70;;;7.20;99.10;;;;;;5055386;28;20618;-70
2021/01/10 09:41:22;;;;;;;0.67;0.67;;;7.70;97.70;;;;;;5055053;28;20433;-74
2021/01/10 09:43:53;;;;;;;1.00;1.00;;;8.00;97.70;;;;;;5054946;28;20427;-74
2021/01/10 09:46:34;;;;;;;2.50;1.27;;;8.40;95.50;;;;;;5054846;28;20411;-74
2021/01/10 09:49:27;;;;;;;1.70;1.60;;;8.60;94.50;;;;;;5055178;28;20426;-71
2021/01/10 09:52:02;;;;;;;0.70;0.53;;;8.40;93.40;;;;;;5054561;28;20435;-74
2021/01/10 09:54:32;;;;;;;0.43;0.43;;;8.50;94.20;;;;;;5053334;28;20428;-74
2021/01/10 09:57:00;;;;;;;0.73;0.73;;;8.80;93.90;;;;;;5054553;28;20462;-72
2021/01/10 09:59:45;;;;;;;1.03;1.03;;;8.90;93.30;;;;;;5053058;28;20419;-73
2021/01/10 10:02:22;;;;;;;0.30;0.30;;;9.20;93.10;;;;;;5049537;28;20450;-75
2021/01/10 10:04:52;;;;;;;1.57;1.23;;;9.10;92.00;;;;;;5055228;28;20431;-75
2021/01/10 10:07:41;;;;;;;0.50;0.50;;;8.80;92.60;;;;;;5054022;28;20772;-72
2021/01/10 10:10:21;;;;;;;2.27;0.93;;;9.00;91.90;;;;;;5061764;28;20418;-70
2021/01/10 10:12:53;;;;;;;0.67;0.60;;;9.20;91.80;;;;;;5055433;28;20536;-69
2021/01/10 10:15:19;;;;;;;0.30;0.30;;;9.20;91.60;;;;;;5050842;28;20501;-72
2021/01/10 10:17:45;;;;;;;0.57;0.57;;;9.20;91.80;;;;;;5043569;28;20891;-71
2021/01/10 10:20:11;;;;;;;0.30;0.30;;;9.40;91.90;;;;;;5053325;28;20173;-72
2021/01/10 10:22:39;;;;;;;1.00;1.00;;;9.60;91.10;;;;;;5053783;28;20213;-70
2021/01/10 10:25:09;;;;;;;0.30;0.20;;;9.60;90.80;;;;;;5054651;28;20455;-70
2021/01/10 10:27:51;;;;;;;0.40;0.40;;;9.50;91.60;;;;;;5054643;28;20916;-68
2021/01/10 10:30:18;;;;;;;3.63;2.90;;;9.70;91.20;;;;;;5054652;28;20522;-70
2021/01/10 10:32:43;;;;;;;1.47;1.37;;;9.90;90.80;;;;;;5053563;28;20456;-69
2021/01/10 10:35:09;;;;;;;1.43;1.33;;;9.80;89.90;;;;;;5053526;28;20402;-69
2021/01/10 10:37:35;;;;;;;0.60;0.60;;;9.70;90.40;;;;;;5052977;28;20201;-68
2021/01/10 10:40:02;;;;;;;0.63;0.63;;;9.80;90.30;;;;;;5053041;28;20414;-71
2021/01/10 10:42:28;;;;;;;0.80;0.80;;;9.80;90.50;;;;;;5052949;28;20376;-69
2021/01/10 10:44:53;;;;;;;0.40;0.40;;;9.70;90.40;;;;;;5054821;28;20903;-68
2021/01/10 10:47:19;;;;;;;0.30;0.20;;;9.50;91.00;;;;;;5052287;28;20177;-69
2021/01/10 10:49:44;;;;;;;0.40;0.40;;;9.70;90.90;;;;;;5060017;28;20203;-71
2021/01/10 10:52:12;;;;;;;0.30;0.30;;;9.70;90.30;;;;;;5062225;28;20212;-69
2021/01/10 10:54:38;;;;;;;0.30;0.30;;;9.60;90.50;;;;;;5063393;28;20796;-70
2021/01/10 10:57:05;;;;;;;0.90;0.90;;;9.60;91.30;;;;;;5066038;28;20462;-68
2021/01/10 10:59:31;;;;;;;0.50;0.50;;;9.50;91.30;;;;;;5057760;28;20905;-70
2021/01/10 11:01:56;;;;;;;0.30;0.27;;;9.40;90.90;;;;;;5053846;28;20474;-68
2021/01/10 11:04:22;;;;;;;0.30;0.30;;;9.20;90.60;;;;;;5054939;28;20173;-69
2021/01/10 11:06:48;;;;;;;0.30;0.20;;;8.80;91.20;;;;;;5053659;28;20210;-71
2021/01/10 11:09:13;;;;;;;0.30;0.20;;;8.50;91.40;;;;;;5054558;28;20231;-69
2021/01/10 11:11:40;;;;;;;0.30;0.20;;;8.40;92.00;;;;;;5052669;28;20199;-69
2021/01/10 11:14:08;;;;;;;2.93;1.27;;;8.30;92.60;;;;;;5050741;28;20198;-69
2021/01/10 11:16:36;;;;;;;1.23;0.70;;;8.20;92.10;;;;;;5032857;28;20866;-69
2021/01/10 11:19:04;;;;;;;0.47;0.47;;;8.00;91.90;;;;;;5036506;28;20405;-69
2021/01/10 11:21:35;;;;;;;0.30;0.30;;;7.50;91.90;;;;;;5045635;28;20651;-70
2021/01/10 11:24:02;;;;;;;0.32;0.32;;;6.80;92.60;;;;;;5034420;28;20664;-71
2021/01/10 11:26:28;;;;;;;0.95;0.95;;;6.20;93.40;;;;;;5053706;28;20215;-69
2021/01/10 11:28:54;;;;;;;0.30;0.27;;;5.60;94.30;;;;;;5052670;28;20173;-68
2021/01/10 11:31:22;;;;;;;0.30;0.30;;;5.10;95.10;;;;;;5032480;28;20452;-70
2021/01/10 11:33:47;;;;;;;0.30;0.30;;;4.70;96.60;;;;;;5035789;28;20647;-69
2021/01/10 11:36:13;;;;;;;0.30;0.30;;;4.40;96.70;;;;;;5053931;28;20289;-70
2021/01/10 11:38:40;;;;;;;0.87;0.87;;;4.20;97.50;;;;;;5053040;28;20588;-68
2021/01/10 11:41:11;;;;;;;0.30;0.30;;;4.10;97.90;;;;;;5052883;28;20473;-75
2021/01/10 11:43:38;;;;;;;0.30;0.30;;;4.00;98.50;;;;;;5053347;28;20172;-68
2021/01/10 11:46:08;;;;;;;0.30;0.30;;;3.80;98.80;;;;;;5052295;28;20188;-67
2021/01/10 11:48:35;;;;;;;0.30;0.30;;;3.70;99.70;;;;;;5053310;28;20197;-68
2021/01/10 11:51:02;;;;;;;0.30;0.30;;;3.80;99.90;;;;;;5051586;28;20567;-69
2021/01/10 11:53:28;;;;;;;0.30;0.30;;;3.70;99.60;;;;;;5047235;28;20662;-69
2021/01/10 11:55:53;;;;;;;0.30;0.30;;;3.80;99.60;;;;;;5052409;28;20279;-69
2021/01/10 11:58:19;;;;;;;0.30;0.30;;;3.80;99.70;;;;;;5053069;28;20178;-68
2021/01/10 12:00:48;;;;;;;0.30;0.30;;;3.90;99.90;;;;;;5050549;28;20204;-69
2021/01/10 12:03:14;;;;;;;0.30;0.30;;;3.90;99.90;;;;;;5051985;28;20447;-70
2021/01/10 12:05:40;;;;;;;2.40;1.33;;;3.80;99.90;;;;;;5053290;28;20266;-69
2021/01/10 12:08:06;;;;;;;0.30;0.30;;;3.90;99.90;;;;;;5052649;28;20660;-68
2021/01/10 12:10:33;;;;;;;2.72;2.60;;;3.90;99.90;;;;;;5052809;28;20630;-68
2021/01/10 12:12:59;;;;;;;0.77;0.77;;;4.00;99.80;;;;;;5053314;28;20197;-67
2021/01/10 12:15:25;;;;;;;0.30;0.30;;;3.90;99.50;;;;;;5053024;28;20188;-68
2021/01/10 12:17:51;;;;;;;0.30;0.20;;;3.80;99.40;;;;;;5052846;28;20181;-69
2021/01/10 12:20:17;;;;;;;0.30;0.30;;;3.60;99.60;;;;;;5052651;28;20534;-70
2021/01/10 12:22:42;;;;;;;0.40;0.40;;;3.50;99.90;;;;;;5036301;28;20716;-68
2021/01/10 12:25:08;;;;;;;0.30;0.20;;;3.40;99.90;;;;;;5033202;28;20200;-69
2021/01/10 12:27:35;;;;;;;0.30;0.30;;;3.40;99.90;;;;;;5033202;28;20588;-69
2021/01/10 12:30:01;;;;;;;0.30;0.30;;;3.30;99.90;;;;;;5032741;28;20228;-68
2021/01/10 12:32:29;;;;;;;0.30;0.30;;;3.40;99.90;;;;;;5046711;28;20229;-68
2021/01/10 12:34:55;;;;;;;0.30;0.30;;;3.50;99.90;;;;;;5053059;28;20165;-71
2021/01/10 12:37:21;;;;;;;0.30;0.30;;;3.50;99.90;;;;;;5053027;28;20200;-69
2021/01/10 12:39:46;;;;;;;0.30;0.20;;;3.50;99.90;;;;;;5052692;28;20162;-68
2021/01/10 12:42:15;;;;;;;0.30;0.30;;;3.50;99.90;;;;;;5040522;28;20239;-68
2021/01/10 12:44:41;;;;;;;4.40;1.27;;;3.50;99.90;;;;;;5033001;28;20526;-69
2021/01/10 12:47:11;;;;;;;0.30;0.30;;;3.50;99.90;;;;;;5032906;28;20177;-69
2021/01/10 12:49:37;;;;;;;0.77;0.77;;;3.60;99.90;;;;;;5032972;28;20170;-69
2021/01/10 12:52:05;;;;;;;2.67;2.58;;;3.60;99.90;;;;;;5042081;28;20298;-69
2021/01/10 12:54:31;;;;;;;0.30;0.30;;;3.70;99.90;;;;;;5053041;28;20170;-70
2021/01/10 12:56:57;;;;;;;0.68;0.68;;;3.70;99.90;;;;;;5052681;28;20559;-69
2021/01/10 12:59:22;;;;;;;1.23;0.87;;;3.70;99.90;;;;;;5052982;28;20165;-69